createdAt,value
2023-03-17T00:00:39.501Z,-1.84
2023-03-17T00:03:08.842Z,-2.04
2023-03-17T00:05:37.108Z,-2.01
2023-03-17T00:08:23.854Z,-2.02
2023-03-17T00:10:55.077Z,-1.99
2023-03-17T00:13:24.243Z,-1.76
2023-03-17T00:16:01.327Z,-1.89
2023-03-17T00:18:31.894Z,-1.87
2023-03-17T00:21:00.484Z,-1.87
2023-03-17T00:23:28.608Z,-2.12
2023-03-17T00:25:57.726Z,-2.28
2023-03-17T00:28:27.678Z,-2.30
2023-03-17T00:31:01.257Z,-1.53
2023-03-17T00:33:33.403Z,-2.08
2023-03-17T00:36:02.056Z,-2.19
2023-03-17T00:38:30.737Z,-1.55
2023-03-17T00:40:59.574Z,-1.36
2023-03-17T00:43:30.380Z,-2.04
2023-03-17T00:45:59.115Z,-1.51
2023-03-17T00:48:30.214Z,-1.51
2023-03-17T00:50:58.784Z,-1.62
2023-03-17T00:53:30.003Z,-1.59
2023-03-17T00:56:00.881Z,-1.29
2023-03-17T00:58:31.536Z,-1.09
2023-03-17T01:01:01.199Z,-0.92
2023-03-17T01:03:29.782Z,-0.36
2023-03-17T01:05:58.160Z,-0.95
2023-03-17T01:08:27.091Z,-1.28
2023-03-17T01:10:55.270Z,-0.70
2023-03-17T01:13:24.258Z,-1.23
2023-03-17T01:15:53.302Z,-1.00
2023-03-17T01:18:23.095Z,-1.20
2023-03-17T01:20:51.988Z,-1.13
2023-03-17T01:23:20.611Z,-0.97
2023-03-17T01:25:49.461Z,-1.72
2023-03-17T01:28:19.933Z,-1.89
2023-03-17T01:30:49.482Z,-1.84
2023-03-17T01:33:19.427Z,-2.13
2023-03-17T01:35:47.810Z,-2.05
2023-03-17T01:38:16.470Z,-2.30
2023-03-17T01:40:50.273Z,-2.25
2023-03-17T01:43:24.423Z,-2.33
2023-03-17T01:46:30.985Z,-2.35
2023-03-17T01:49:04.696Z,-2.29
2023-03-17T01:51:51.729Z,-2.62
2023-03-17T01:54:29.999Z,-2.63
2023-03-17T01:57:04.147Z,-2.70
2023-03-17T01:59:35.613Z,-2.68
2023-03-17T02:02:11.175Z,-2.54
2023-03-17T02:04:40.620Z,-2.76
2023-03-17T02:07:10.424Z,-2.61
2023-03-17T02:09:40.591Z,-2.77
2023-03-17T02:12:09.994Z,-2.96
2023-03-17T02:14:38.205Z,-2.84
2023-03-17T02:17:06.869Z,-2.99
2023-03-17T02:19:36.027Z,-2.64
2023-03-17T02:22:04.171Z,-2.92
2023-03-17T02:24:34.304Z,-1.99
2023-03-17T02:27:15.333Z,-1.67
2023-03-17T02:29:46.569Z,-1.41
2023-03-17T02:32:16.054Z,-1.10
2023-03-17T02:34:46.813Z,-1.93
2023-03-17T02:37:16.649Z,-2.56
2023-03-17T02:39:45.175Z,-1.75
2023-03-17T02:42:14.254Z,-1.98
2023-03-17T02:44:42.338Z,-2.49
2023-03-17T02:47:11.125Z,-2.18
2023-03-17T02:49:40.655Z,-2.93
2023-03-17T02:52:09.554Z,-2.65
2023-03-17T02:54:38.484Z,-3.13
2023-03-17T02:57:08.714Z,-2.65
2023-03-17T02:59:37.039Z,-1.92
2023-03-17T03:02:05.968Z,-2.95
2023-03-17T03:04:34.072Z,-3.18
2023-03-17T03:07:03.044Z,-3.21
2023-03-17T03:09:31.648Z,-3.14
2023-03-17T03:12:00.149Z,-2.45
2023-03-17T03:14:28.296Z,-2.75
2023-03-17T03:16:56.902Z,-2.92
2023-03-17T03:19:25.116Z,-3.38
2023-03-17T03:21:53.208Z,-3.21
2023-03-17T03:24:21.727Z,-3.40
2023-03-17T03:26:49.894Z,-1.58
2023-03-17T03:29:18.168Z,-1.31
2023-03-17T03:31:48.865Z,-1.20
2023-03-17T03:34:17.112Z,-1.89
2023-03-17T03:36:45.330Z,-2.54
2023-03-17T03:39:14.515Z,-3.10
2023-03-17T03:41:42.866Z,-3.10
2023-03-17T03:44:11.214Z,-3.04
2023-03-17T03:46:39.767Z,-2.55
2023-03-17T03:49:08.030Z,-3.31
2023-03-17T03:51:36.156Z,-3.33
2023-03-17T03:54:04.599Z,-3.33
2023-03-17T03:56:32.958Z,-3.24
2023-03-17T03:59:01.461Z,-3.43
2023-03-17T04:01:29.970Z,-3.20
2023-03-17T04:03:58.495Z,-2.97
2023-03-17T04:06:26.609Z,-2.73
2023-03-17T04:08:57.092Z,-2.64
2023-03-17T04:11:26.800Z,-2.78
2023-03-17T04:13:55.132Z,-3.05
2023-03-17T04:16:23.308Z,-2.95
2023-03-17T04:18:52.129Z,-2.72
2023-03-17T04:21:20.913Z,-2.97
2023-03-17T04:23:49.238Z,-3.05
2023-03-17T04:26:19.010Z,-3.03
2023-03-17T04:28:47.306Z,-3.12
2023-03-17T04:31:15.593Z,-2.66
2023-03-17T04:33:44.201Z,-3.09
2023-03-17T04:36:24.179Z,-3.44
2023-03-17T04:38:52.715Z,-3.06
2023-03-17T04:41:21.580Z,-2.65
2023-03-17T04:43:49.792Z,-2.48
2023-03-17T04:46:18.410Z,-2.61
2023-03-17T04:48:46.726Z,-2.97
2023-03-17T04:51:14.822Z,-3.06
2023-03-17T04:53:43.368Z,-3.26
2023-03-17T04:56:12.206Z,-3.19
2023-03-17T04:58:40.388Z,-2.91
2023-03-17T05:01:09.082Z,-2.84
2023-03-17T05:03:37.560Z,-2.60
2023-03-17T05:06:07.347Z,-3.00
2023-03-17T05:08:36.229Z,-3.26
2023-03-17T05:11:04.597Z,-2.93
2023-03-17T05:13:32.718Z,-2.83
2023-03-17T05:16:01.866Z,-3.20
2023-03-17T05:18:30.868Z,-3.22
2023-03-17T05:20:59.083Z,-2.66
2023-03-17T05:23:27.719Z,-2.52
2023-03-17T05:25:56.159Z,-1.89
2023-03-17T05:28:25.093Z,-2.05
2023-03-17T05:30:53.711Z,-2.03
2023-03-17T05:33:22.115Z,-1.78
2023-03-17T05:35:50.507Z,-1.00
2023-03-17T05:38:19.097Z,-0.01
2023-03-17T05:40:50.098Z,1.26
2023-03-17T05:43:18.920Z,3.13
2023-03-17T05:45:47.944Z,3.77
2023-03-17T05:48:16.268Z,4.56
2023-03-17T05:50:44.905Z,4.54
2023-03-17T05:53:13.139Z,6.63
2023-03-17T05:55:41.951Z,6.71
2023-03-17T05:58:10.581Z,7.79
2023-03-17T06:00:39.170Z,8.32
2023-03-17T06:03:08.206Z,10.17
2023-03-17T06:05:37.035Z,10.36
2023-03-17T06:08:06.489Z,10.87
2023-03-17T06:10:35.138Z,10.79
2023-03-17T06:13:04.836Z,11.61
2023-03-17T06:15:34.636Z,11.70
2023-03-17T06:18:05.575Z,10.69
2023-03-17T06:20:34.593Z,9.35
2023-03-17T06:23:05.570Z,9.70
2023-03-17T06:25:37.217Z,9.24
2023-03-17T06:28:07.611Z,9.97
2023-03-17T06:30:40.654Z,10.20
2023-03-17T06:33:11.284Z,10.05
2023-03-17T06:35:44.733Z,10.99
2023-03-17T06:38:13.814Z,11.76
2023-03-17T06:40:42.628Z,12.14
2023-03-17T06:43:13.375Z,12.56
2023-03-17T06:45:42.058Z,13.15
2023-03-17T06:48:12.001Z,12.99
2023-03-17T06:50:42.831Z,12.65
2023-03-17T06:53:15.567Z,12.36
2023-03-17T06:55:46.617Z,12.19
2023-03-17T06:58:19.114Z,11.03
2023-03-17T07:00:49.193Z,11.86
2023-03-17T07:03:17.791Z,11.46
2023-03-17T07:05:47.201Z,11.33
2023-03-17T07:08:15.469Z,11.19
2023-03-17T07:10:47.917Z,11.66
2023-03-17T07:13:17.138Z,11.18
2023-03-17T07:15:46.752Z,11.72
2023-03-17T07:18:19.639Z,11.15
2023-03-17T07:20:48.869Z,11.13
2023-03-17T07:23:21.546Z,10.41
2023-03-17T07:25:51.018Z,10.17
2023-03-17T07:28:19.628Z,10.53
2023-03-17T07:30:51.369Z,10.66
2023-03-17T07:33:21.479Z,10.88
2023-03-17T07:35:50.222Z,10.47
2023-03-17T07:38:21.366Z,9.82
2023-03-17T07:40:49.930Z,9.96
2023-03-17T07:43:18.137Z,10.84
2023-03-17T07:45:47.108Z,12.05
2023-03-17T07:48:15.691Z,11.45
2023-03-17T07:50:44.674Z,11.14
2023-03-17T07:53:14.397Z,11.18
2023-03-17T07:55:44.527Z,10.87
2023-03-17T07:58:15.604Z,9.51
2023-03-17T08:00:44.478Z,10.08
2023-03-17T08:03:13.166Z,10.02
2023-03-17T08:05:43.783Z,10.56
2023-03-17T08:08:15.472Z,11.19
2023-03-17T08:10:43.575Z,10.70
2023-03-17T08:13:13.386Z,11.36
2023-03-17T08:15:42.670Z,11.94
2023-03-17T08:18:10.846Z,11.30
2023-03-17T08:20:39.448Z,10.81
2023-03-17T08:23:08.047Z,11.19
2023-03-17T08:25:36.312Z,11.67
2023-03-17T08:28:06.585Z,12.12
2023-03-17T08:30:35.800Z,11.60
2023-03-17T08:33:04.896Z,12.10
2023-03-17T08:35:33.813Z,12.41
2023-03-17T08:38:02.696Z,12.58
2023-03-17T08:40:31.752Z,13.34
2023-03-17T08:43:00.150Z,12.80
2023-03-17T08:45:29.321Z,12.40
2023-03-17T08:47:58.028Z,11.82
2023-03-17T08:50:28.552Z,12.25
2023-03-17T08:52:57.357Z,11.98
2023-03-17T08:55:25.485Z,12.26
2023-03-17T08:57:53.987Z,11.67
2023-03-17T09:00:24.438Z,12.03
2023-03-17T09:02:52.547Z,12.44
2023-03-17T09:05:20.993Z,12.79
2023-03-17T09:07:50.405Z,12.24
2023-03-17T09:10:23.943Z,12.29
2023-03-17T09:12:53.609Z,11.47
2023-03-17T09:15:22.368Z,11.76
2023-03-17T09:17:50.742Z,12.58
2023-03-17T09:20:19.525Z,13.00
2023-03-17T09:22:49.374Z,12.98
2023-03-17T09:25:18.213Z,13.48
2023-03-17T09:27:46.982Z,13.75
2023-03-17T09:30:15.370Z,12.47
2023-03-17T09:32:45.734Z,13.15
2023-03-17T09:35:14.606Z,14.26
2023-03-17T09:37:42.984Z,13.77
2023-03-17T09:40:17.499Z,13.00
2023-03-17T09:42:58.779Z,14.00
2023-03-17T09:45:35.676Z,14.77
2023-03-17T09:48:25.639Z,14.84
2023-03-17T09:51:05.248Z,15.67
2023-03-17T09:53:53.000Z,16.45
2023-03-17T09:56:21.578Z,16.81
2023-03-17T09:59:06.479Z,14.82
2023-03-17T10:01:34.922Z,13.68
2023-03-17T10:04:04.416Z,14.78
2023-03-17T10:06:40.897Z,15.47
2023-03-17T10:09:35.524Z,16.55
2023-03-17T10:12:37.194Z,16.65
2023-03-17T10:15:27.037Z,17.57
2023-03-17T10:17:57.357Z,17.51
2023-03-17T10:20:29.095Z,18.90
2023-03-17T10:23:10.499Z,16.97
2023-03-17T10:25:39.732Z,17.22
2023-03-17T10:28:27.370Z,18.26
2023-03-17T10:31:02.394Z,17.74
2023-03-17T10:33:30.733Z,17.61
2023-03-17T10:36:09.922Z,17.37
2023-03-17T10:38:38.113Z,15.56
2023-03-17T10:41:10.379Z,17.69
2023-03-17T10:43:45.999Z,18.20
2023-03-17T10:46:26.601Z,18.49
2023-03-17T10:49:05.971Z,19.69
2023-03-17T10:51:37.197Z,19.67
2023-03-17T10:54:14.337Z,18.84
2023-03-17T10:56:43.179Z,18.27
2023-03-17T10:59:28.638Z,18.89
2023-03-17T11:02:01.799Z,18.23
2023-03-17T11:04:40.510Z,20.30
2023-03-17T11:07:31.555Z,20.13
2023-03-17T11:10:03.211Z,21.34
2023-03-17T11:12:38.522Z,20.69
2023-03-17T11:15:12.554Z,22.95
2023-03-17T11:18:01.149Z,20.32
2023-03-17T11:20:57.313Z,19.82
2023-03-17T11:23:46.911Z,18.60
2023-03-17T11:26:21.572Z,18.42
2023-03-17T11:29:04.627Z,18.49
2023-03-17T11:31:38.185Z,21.09
2023-03-17T11:34:18.150Z,19.17
2023-03-17T11:37:32.720Z,17.83
2023-03-17T11:40:18.763Z,18.00
2023-03-17T11:43:20.620Z,20.37
2023-03-17T11:45:49.456Z,21.38
2023-03-17T11:48:35.532Z,19.52
2023-03-17T11:51:10.590Z,17.33
2023-03-17T11:53:38.753Z,19.07
2023-03-17T11:56:14.112Z,18.06
2023-03-17T11:58:47.256Z,17.76
2023-03-17T12:01:26.645Z,17.15
2023-03-17T12:04:11.599Z,17.88
2023-03-17T12:06:51.049Z,15.81
2023-03-17T12:09:33.734Z,14.98
2023-03-17T12:12:04.639Z,15.92
2023-03-17T12:14:40.440Z,15.00
2023-03-17T12:17:34.806Z,14.71
2023-03-17T12:20:08.238Z,15.07
2023-03-17T12:23:29.780Z,14.45
2023-03-17T12:26:08.858Z,14.08
2023-03-17T12:28:44.847Z,13.96
2023-03-17T12:31:18.720Z,14.28
2023-03-17T12:34:16.617Z,14.19
2023-03-17T12:36:45.137Z,14.55
2023-03-17T12:39:28.635Z,14.51
2023-03-17T12:42:12.148Z,13.95
2023-03-17T12:45:07.665Z,12.46
2023-03-17T12:48:26.839Z,12.20
2023-03-17T12:51:07.049Z,12.14
2023-03-17T12:53:39.094Z,11.83
2023-03-17T12:56:29.405Z,12.84
2023-03-17T12:59:21.906Z,12.31
2023-03-17T13:02:00.718Z,11.53
2023-03-17T13:04:37.564Z,11.45
2023-03-17T13:07:13.178Z,11.45
2023-03-17T13:09:43.317Z,11.88
2023-03-17T13:12:42.885Z,10.95
2023-03-17T13:15:48.455Z,11.86
2023-03-17T13:18:16.786Z,12.31
2023-03-17T13:20:58.200Z,12.12
2023-03-17T13:23:49.483Z,11.73
2023-03-17T13:26:24.625Z,12.91
2023-03-17T13:28:54.725Z,12.88
2023-03-17T13:31:31.407Z,13.00
2023-03-17T13:34:20.378Z,12.06
2023-03-17T13:37:05.954Z,12.79
2023-03-17T13:40:14.893Z,12.80
2023-03-17T13:42:50.312Z,13.21
2023-03-17T13:45:23.118Z,12.02
2023-03-17T13:48:21.024Z,12.11
2023-03-17T13:51:14.514Z,12.36
2023-03-17T13:53:51.545Z,11.44
2023-03-17T13:56:44.508Z,11.12
2023-03-17T14:00:06.785Z,11.49
2023-03-17T14:02:41.902Z,11.91
2023-03-17T14:05:29.275Z,11.25
2023-03-17T14:08:18.477Z,10.94
2023-03-17T14:10:57.888Z,11.30
2023-03-17T14:13:55.138Z,11.37
2023-03-17T14:16:38.796Z,11.55
2023-03-17T14:19:20.933Z,10.94
2023-03-17T14:21:52.146Z,11.71
2023-03-17T14:24:35.234Z,11.76
2023-03-17T14:27:09.307Z,12.07
2023-03-17T14:29:44.845Z,12.17
2023-03-17T14:32:16.544Z,11.97
2023-03-17T14:34:53.361Z,11.81
2023-03-17T14:37:22.518Z,11.32
2023-03-17T14:39:55.758Z,11.50
2023-03-17T14:42:29.448Z,11.15
2023-03-17T14:45:04.159Z,11.23
2023-03-17T14:47:40.662Z,11.16
2023-03-17T14:50:32.478Z,11.61
2023-03-17T14:53:01.248Z,11.62
2023-03-17T14:55:41.116Z,11.90
2023-03-17T14:58:21.249Z,11.68
2023-03-17T15:00:56.515Z,11.93
2023-03-17T15:03:25.755Z,11.91
2023-03-17T15:08:46.358Z,11.53
2023-03-17T15:11:21.113Z,11.65
2023-03-17T15:13:50.240Z,11.20
2023-03-17T15:16:28.422Z,11.59
2023-03-17T15:19:10.772Z,11.14
2023-03-17T15:21:42.347Z,11.80
2023-03-17T15:24:32.805Z,11.84
2023-03-17T15:27:07.375Z,11.48
2023-03-17T15:29:36.781Z,11.41
2023-03-17T15:32:14.571Z,11.19
2023-03-17T15:34:43.100Z,10.95
2023-03-17T15:37:23.992Z,10.62
2023-03-17T15:39:53.396Z,10.18
2023-03-17T15:42:25.301Z,10.57
2023-03-17T15:44:56.932Z,10.56
2023-03-17T15:47:28.522Z,10.74
2023-03-17T15:50:07.760Z,11.13
2023-03-17T15:52:37.801Z,10.73
2023-03-17T15:55:24.028Z,10.84
2023-03-17T15:57:55.954Z,10.77
2023-03-17T16:00:31.136Z,10.78
2023-03-17T16:03:05.004Z,10.36
2023-03-17T16:05:34.432Z,10.49
2023-03-17T16:08:03.085Z,10.30
2023-03-17T16:10:33.477Z,10.49
2023-03-17T16:13:02.549Z,10.22
2023-03-17T16:15:32.840Z,10.51
2023-03-17T16:18:04.495Z,9.65
2023-03-17T16:20:41.971Z,10.35
2023-03-17T16:23:16.092Z,9.97
2023-03-17T16:25:46.238Z,9.85
2023-03-17T16:28:23.574Z,9.81
2023-03-17T16:30:54.706Z,10.04
2023-03-17T16:33:26.865Z,9.79
2023-03-17T16:35:58.515Z,9.42
2023-03-17T16:38:29.965Z,9.71
2023-03-17T16:41:08.205Z,9.20
2023-03-17T16:43:39.918Z,9.55
2023-03-17T16:46:11.332Z,9.40
2023-03-17T16:48:40.286Z,9.13
2023-03-17T16:51:08.910Z,9.31
2023-03-17T16:53:37.128Z,9.08
2023-03-17T16:56:10.428Z,8.11
2023-03-17T16:58:40.001Z,7.38
2023-03-17T17:01:13.861Z,7.94
2023-03-17T17:03:43.218Z,7.88
2023-03-17T17:06:12.911Z,7.85
2023-03-17T17:08:44.996Z,7.00
2023-03-17T17:11:15.045Z,6.16
2023-03-17T17:13:45.444Z,6.02
2023-03-17T17:16:28.332Z,5.94
2023-03-17T17:18:57.518Z,5.64
2023-03-17T17:21:27.039Z,5.30
2023-03-17T17:23:56.086Z,5.39
2023-03-17T17:26:24.268Z,4.66
2023-03-17T17:28:53.039Z,4.64
2023-03-17T17:31:22.967Z,4.48
2023-03-17T17:33:51.254Z,4.40
2023-03-17T17:36:19.760Z,4.33
2023-03-17T17:38:49.651Z,3.73
2023-03-17T17:41:21.734Z,3.23
2023-03-17T17:43:50.766Z,4.46
2023-03-17T17:46:23.272Z,4.71
2023-03-17T17:48:52.683Z,4.98
2023-03-17T17:51:20.948Z,4.84
2023-03-17T17:53:50.914Z,3.95
2023-03-17T17:56:19.677Z,3.70
2023-03-17T17:58:48.146Z,3.20
2023-03-17T18:01:20.090Z,3.82
2023-03-17T18:03:48.991Z,3.69
2023-03-17T18:06:18.224Z,3.23
2023-03-17T18:08:46.811Z,3.80
2023-03-17T18:11:15.848Z,4.32
2023-03-17T18:13:44.932Z,3.38
2023-03-17T18:16:16.698Z,3.33
2023-03-17T18:18:46.632Z,3.96
2023-03-17T18:21:15.373Z,4.04
2023-03-17T18:23:47.474Z,3.39
2023-03-17T18:26:17.578Z,2.82
2023-03-17T18:28:45.768Z,2.94
2023-03-17T18:31:39.218Z,2.63
2023-03-17T18:34:13.227Z,3.46
2023-03-17T18:36:41.925Z,3.53
2023-03-17T18:39:10.856Z,2.84
2023-03-17T18:41:39.154Z,2.88
2023-03-17T18:44:07.900Z,2.82
2023-03-17T18:46:37.499Z,3.36
2023-03-17T18:49:06.604Z,4.01
2023-03-17T18:51:35.248Z,4.42
2023-03-17T18:54:05.105Z,4.75
2023-03-17T18:56:33.330Z,3.75
2023-03-17T18:59:01.628Z,4.09
2023-03-17T19:01:30.895Z,4.62
2023-03-17T19:03:59.319Z,4.61
2023-03-17T19:06:27.559Z,4.97
2023-03-17T19:08:56.573Z,4.36
2023-03-17T19:11:25.768Z,4.88
2023-03-17T19:13:56.189Z,4.88
2023-03-17T19:16:29.333Z,5.12
2023-03-17T19:18:59.555Z,5.16
2023-03-17T19:21:28.890Z,5.16
2023-03-17T19:24:01.152Z,5.30
2023-03-17T19:26:31.478Z,5.18
2023-03-17T19:29:00.837Z,5.10
2023-03-17T19:31:29.322Z,5.15
2023-03-17T19:33:57.608Z,5.12
2023-03-17T19:36:26.274Z,5.20
2023-03-17T19:38:54.879Z,5.72
2023-03-17T19:41:23.267Z,5.88
2023-03-17T19:43:51.778Z,5.81
2023-03-17T19:46:20.261Z,6.07
2023-03-17T19:48:48.450Z,5.05
2023-03-17T19:51:17.096Z,5.47
2023-03-17T19:53:45.596Z,5.02
2023-03-17T19:56:13.693Z,5.53
2023-03-17T19:58:42.236Z,5.41
2023-03-17T20:01:10.417Z,5.07
2023-03-17T20:03:42.667Z,5.54
2023-03-17T20:06:12.639Z,5.21
2023-03-17T20:08:43.013Z,5.06
2023-03-17T20:11:12.297Z,5.24
2023-03-17T20:13:41.247Z,5.18
2023-03-17T20:16:09.680Z,5.32
2023-03-17T20:18:38.317Z,5.60
2023-03-17T20:21:14.464Z,5.47
2023-03-17T20:23:42.758Z,5.51
2023-03-17T20:26:11.301Z,5.23
2023-03-17T20:28:39.386Z,4.98
2023-03-17T20:31:10.204Z,5.20
2023-03-17T20:33:38.780Z,5.50
2023-03-17T20:36:07.262Z,5.45
2023-03-17T20:38:39.225Z,4.80
2023-03-17T20:41:18.661Z,5.04
2023-03-17T20:43:47.612Z,5.39
2023-03-17T20:46:24.124Z,5.43
2023-03-17T20:48:58.915Z,5.00
2023-03-17T20:51:27.874Z,4.93
2023-03-17T20:53:57.077Z,4.88
2023-03-17T20:56:26.861Z,4.97
2023-03-17T20:58:56.542Z,4.98
2023-03-17T21:01:24.876Z,5.15
2023-03-17T21:03:53.820Z,5.35
2023-03-17T21:06:25.854Z,5.57
2023-03-17T21:08:54.694Z,5.67
2023-03-17T21:11:23.439Z,5.27
2023-03-17T21:13:52.111Z,5.54
2023-03-17T21:16:24.158Z,5.72
2023-03-17T21:18:52.981Z,5.55
2023-03-17T21:21:22.309Z,5.22
2023-03-17T21:23:50.471Z,5.56
2023-03-17T21:26:19.734Z,5.37
2023-03-17T21:28:49.014Z,5.21
2023-03-17T21:31:17.541Z,5.39
2023-03-17T21:33:50.821Z,5.69
2023-03-17T21:36:21.127Z,5.85
2023-03-17T21:38:49.901Z,5.37
2023-03-17T21:41:22.610Z,5.13
2023-03-17T21:43:51.380Z,5.37
2023-03-17T21:46:19.473Z,5.27
2023-03-17T21:48:47.680Z,5.32
2023-03-17T21:51:16.166Z,5.66
2023-03-17T21:53:44.934Z,5.78
2023-03-17T21:56:13.815Z,5.60
2023-03-17T21:58:43.254Z,5.39
2023-03-17T22:01:12.005Z,5.18
2023-03-17T22:03:42.518Z,5.25
2023-03-17T22:06:11.952Z,5.18
2023-03-17T22:08:40.798Z,5.62
2023-03-17T22:11:19.131Z,5.21
2023-03-17T22:13:48.318Z,5.03
2023-03-17T22:16:17.256Z,4.67
2023-03-17T22:18:45.747Z,4.93
2023-03-17T22:21:14.946Z,4.41
2023-03-17T22:23:43.097Z,4.60
2023-03-17T22:26:16.834Z,4.61
2023-03-17T22:28:46.600Z,4.85
2023-03-17T22:31:20.961Z,4.72
2023-03-17T22:33:51.420Z,4.31
2023-03-17T22:36:19.593Z,4.30
2023-03-17T22:38:47.862Z,4.64
2023-03-17T22:41:21.935Z,4.33
2023-03-17T22:43:50.446Z,4.45
2023-03-17T22:46:19.589Z,4.29
2023-03-17T22:48:48.215Z,4.68
2023-03-17T22:51:19.421Z,4.70
2023-03-17T22:53:47.998Z,4.32
2023-03-17T22:56:16.958Z,4.50
2023-03-17T22:58:46.003Z,4.82
2023-03-17T23:01:16.779Z,4.40
2023-03-17T23:03:45.875Z,4.56
2023-03-17T23:06:14.881Z,4.39
2023-03-17T23:08:43.907Z,3.84
2023-03-17T23:11:18.684Z,3.67
2023-03-17T23:13:48.191Z,3.42
2023-03-17T23:16:17.508Z,3.35
2023-03-17T23:18:46.977Z,3.03
2023-03-17T23:21:30.468Z,2.72
2023-03-17T23:23:59.367Z,2.35
2023-03-17T23:26:28.747Z,2.68
2023-03-17T23:28:56.844Z,1.88
2023-03-17T23:31:24.984Z,2.04
2023-03-17T23:33:53.925Z,1.85
2023-03-17T23:36:22.119Z,1.36
2023-03-17T23:38:52.448Z,1.59
2023-03-17T23:41:21.107Z,1.65
2023-03-17T23:43:49.343Z,1.84
2023-03-17T23:46:18.095Z,1.76
2023-03-17T23:48:46.898Z,1.82
2023-03-17T23:51:15.614Z,1.63
2023-03-17T23:53:43.947Z,2.15
2023-03-17T23:56:13.254Z,1.62
2023-03-17T23:58:43.701Z,1.61
